Time;durP1;ratioP1;P1;durP2;ratioP2;P2;SDS_P1;SDS_P2;PMS_P1;PMS_P2;Temp;Humidity;BMP_temperature;BMP_pressure;BME280_temperature;BME280_humidity;BME280_pressure;Samples;Min_cycle;Max_cycle;Signal;HPM_P1;HPM_P2
2022/07/16 00:02:59;;;;;;;8.00;3.05;;;;;;;;;;5010378;28;20159;-68
2022/07/16 00:05:25;;;;;;;6.53;2.50;;;;;;;;;;5016187;28;20039;-68
2022/07/16 00:07:51;;;;;;;6.78;2.50;;;;;;;;;;5012328;28;20443;-68
2022/07/16 00:10:17;;;;;;;6.93;2.53;;;;;;;;;;5013921;28;20029;-68
2022/07/16 00:12:43;;;;;;;9.00;2.58;;;;;;;;;;5011838;28;20033;-70
2022/07/16 00:15:10;;;;;;;6.40;2.08;;;;;;;;;;5012613;28;20140;-68
2022/07/16 00:17:36;;;;;;;5.55;2.03;;;;;;;;;;5010739;28;20033;-69
2022/07/16 00:20:03;;;;;;;6.40;2.38;;;;;;;;;;5014068;28;20037;-68
2022/07/16 00:22:29;;;;;;;7.13;2.15;;;;;;;;;;5014512;28;20048;-69
2022/07/16 00:24:55;;;;;;;8.65;2.35;;;;;;;;;;5015043;28;20044;-68
2022/07/16 00:27:21;;;;;;;7.32;2.22;;;;;;;;;;5014819;28;20439;-68
2022/07/16 00:29:48;;;;;;;7.90;2.42;;;;;;;;;;5014263;28;20100;-69
2022/07/16 00:32:14;;;;;;;7.47;2.40;;;;;;;;;;5016028;28;20030;-69
2022/07/16 00:34:41;;;;;;;7.75;2.58;;;;;;;;;;5009179;28;20036;-68
2022/07/16 00:37:07;;;;;;;8.25;2.80;;;;;;;;;;5018349;28;20060;-69
2022/07/16 00:39:33;;;;;;;13.88;2.38;;;;;;;;;;5014175;28;20041;-69
2022/07/16 00:41:59;;;;;;;7.63;2.65;;;;;;;;;;5011057;28;22795;-69
2022/07/16 00:44:28;;;;;;;6.82;2.50;;;;;;;;;;5017393;28;20033;-71
2022/07/16 00:46:54;;;;;;;11.18;2.83;;;;;;;;;;5011946;28;20245;-70
2022/07/16 00:49:21;;;;;;;10.25;2.95;;;;;;;;;;5019756;28;20045;-70
2022/07/16 00:51:49;;;;;;;8.05;2.95;;;;;;;;;;5010543;28;20033;-68
2022/07/16 00:54:15;;;;;;;9.57;2.50;;;;;;;;;;5007518;28;20437;-68
2022/07/16 00:56:42;;;;;;;9.88;2.58;;;;;;;;;;5009883;28;20041;-67
2022/07/16 00:59:08;;;;;;;9.05;3.00;;;;;;;;;;5006204;28;20037;-68
2022/07/16 01:01:35;;;;;;;7.97;2.50;;;;;;;;;;5010013;28;20120;-68
2022/07/16 01:04:04;;;;;;;7.25;2.50;;;;;;;;;;5009278;28;20035;-68
2022/07/16 01:06:31;;;;;;;6.35;2.35;;;;;;;;;;5014969;28;20029;-68
2022/07/16 01:08:57;;;;;;;8.65;2.47;;;;;;;;;;5009284;28;20512;-68
2022/07/16 01:11:24;;;;;;;6.72;2.38;;;;;;;;;;5013128;28;20493;-68
2022/07/16 01:13:50;;;;;;;6.78;2.60;;;;;;;;;;5009103;28;20026;-68
2022/07/16 01:16:17;;;;;;;6.45;2.60;;;;;;;;;;5010754;28;20034;-68
2022/07/16 01:18:44;;;;;;;7.15;2.65;;;;;;;;;;5010377;28;20565;-69
2022/07/16 01:21:11;;;;;;;9.68;3.10;;;;;;;;;;5016215;28;20033;-69
2022/07/16 01:23:37;;;;;;;10.18;3.10;;;;;;;;;;5014686;28;20029;-68
2022/07/16 01:26:03;;;;;;;7.63;2.90;;;;;;;;;;5009598;28;20411;-68
2022/07/16 01:28:29;;;;;;;9.75;2.90;;;;;;;;;;5011262;28;20531;-68
2022/07/16 01:30:55;;;;;;;9.45;2.80;;;;;;;;;;5010391;28;21254;-69
2022/07/16 01:33:26;;;;;;;10.68;2.53;;;;;;;;;;5011925;28;20033;-68
2022/07/16 01:35:54;;;;;;;7.57;2.65;;;;;;;;;;5009022;28;20233;-68
2022/07/16 01:38:20;;;;;;;8.20;3.00;;;;;;;;;;5013235;28;20045;-69
2022/07/16 01:40:46;;;;;;;10.10;3.15;;;;;;;;;;5009201;28;20105;-70
2022/07/16 01:43:16;;;;;;;8.55;3.00;;;;;;;;;;5018503;28;20139;-68
2022/07/16 01:45:42;;;;;;;8.52;3.13;;;;;;;;;;5005557;28;20040;-68
2022/07/16 01:48:09;;;;;;;7.30;2.85;;;;;;;;;;5016309;28;20052;-68
2022/07/16 01:50:36;;;;;;;10.02;3.20;;;;;;;;;;5053843;28;20025;-68
2022/07/16 01:53:02;;;;;;;7.43;3.05;;;;;;;;;;5049564;28;20201;-68
2022/07/16 01:55:28;;;;;;;9.38;3.30;;;;;;;;;;5052153;28;20032;-69
2022/07/16 01:57:54;;;;;;;7.93;3.83;;;;;;;;;;5054650;28;20024;-68
2022/07/16 02:00:20;;;;;;;7.95;3.33;;;;;;;;;;5049323;28;20571;-68
2022/07/16 02:02:46;;;;;;;8.55;3.47;;;;;;;;;;5055905;28;20598;-69
2022/07/16 02:05:12;;;;;;;7.80;3.65;;;;;;;;;;5032707;28;20030;-68
2022/07/16 02:07:39;;;;;;;11.38;3.63;;;;;;;;;;5054433;28;20426;-69
2022/07/16 02:10:05;;;;;;;8.35;3.35;;;;;;;;;;5034939;28;20552;-68
2022/07/16 02:12:32;;;;;;;10.05;3.90;;;;;;;;;;5034977;28;20725;-68
2022/07/16 02:14:58;;;;;;;9.68;3.63;;;;;;;;;;5035170;28;20534;-68
2022/07/16 02:17:25;;;;;;;10.52;3.72;;;;;;;;;;5058351;28;20046;-68
2022/07/16 02:19:51;;;;;;;8.43;3.05;;;;;;;;;;5057208;28;20551;-68
2022/07/16 02:22:17;;;;;;;8.90;3.30;;;;;;;;;;5052716;28;20510;-68
2022/07/16 02:24:43;;;;;;;8.65;3.00;;;;;;;;;;5056346;28;20147;-67
2022/07/16 02:27:10;;;;;;;8.65;2.83;;;;;;;;;;5053762;28;20492;-70
2022/07/16 02:29:36;;;;;;;6.32;2.60;;;;;;;;;;5053721;28;20457;-70
2022/07/16 02:32:02;;;;;;;7.18;2.67;;;;;;;;;;5056136;28;20051;-69
2022/07/16 02:34:28;;;;;;;7.90;2.63;;;;;;;;;;5056516;28;20493;-69
2022/07/16 02:36:54;;;;;;;9.38;2.67;;;;;;;;;;5039153;28;20036;-69
2022/07/16 02:39:20;;;;;;;7.28;2.80;;;;;;;;;;5056283;28;20051;-68
2022/07/16 02:41:46;;;;;;;9.00;2.55;;;;;;;;;;5055913;28;20117;-67
2022/07/16 02:44:13;;;;;;;6.68;2.70;;;;;;;;;;5041539;28;20032;-68
2022/07/16 02:46:39;;;;;;;6.50;2.88;;;;;;;;;;5055678;28;20486;-68
2022/07/16 02:49:05;;;;;;;6.47;2.50;;;;;;;;;;5057551;28;20097;-69
2022/07/16 02:51:31;;;;;;;10.35;2.70;;;;;;;;;;5057908;28;20036;-68
2022/07/16 02:53:57;;;;;;;8.35;2.90;;;;;;;;;;5050804;28;20113;-68
2022/07/16 02:56:23;;;;;;;8.48;2.90;;;;;;;;;;5055554;28;20043;-69
2022/07/16 02:58:49;;;;;;;7.50;2.78;;;;;;;;;;5034018;28;20119;-68
2022/07/16 03:01:15;;;;;;;8.07;2.80;;;;;;;;;;5034550;28;20798;-68
2022/07/16 03:03:41;;;;;;;6.57;2.92;;;;;;;;;;5051897;28;20054;-68
2022/07/16 03:06:08;;;;;;;8.80;2.97;;;;;;;;;;5037422;28;20445;-68
2022/07/16 03:08:34;;;;;;;6.78;2.85;;;;;;;;;;5051305;28;20636;-68
2022/07/16 03:11:00;;;;;;;6.53;2.70;;;;;;;;;;5056435;28;20054;-69
2022/07/16 03:13:26;;;;;;;7.50;2.75;;;;;;;;;;5057986;28;20023;-68
2022/07/16 03:15:53;;;;;;;8.68;2.95;;;;;;;;;;5035180;28;20139;-68
2022/07/16 03:18:21;;;;;;;10.77;2.85;;;;;;;;;;5059519;28;20421;-68
2022/07/16 03:20:47;;;;;;;12.98;2.72;;;;;;;;;;5054010;28;20040;-68
2022/07/16 03:23:13;;;;;;;8.50;2.88;;;;;;;;;;5054292;28;20020;-69
2022/07/16 03:25:41;;;;;;;11.25;3.10;;;;;;;;;;5056928;28;20039;-68
2022/07/16 03:28:08;;;;;;;9.95;2.85;;;;;;;;;;5057241;28;20027;-68
2022/07/16 03:30:34;;;;;;;9.85;3.38;;;;;;;;;;5055951;28;20686;-69
2022/07/16 03:33:00;;;;;;;7.53;3.00;;;;;;;;;;5047182;28;20028;-69
2022/07/16 03:35:26;;;;;;;11.25;2.85;;;;;;;;;;5037495;28;20500;-68
2022/07/16 03:40:37;;;;;;;10.00;2.85;;;;;;;;;;5053965;28;20092;-68
2022/07/16 03:43:03;;;;;;;8.77;2.75;;;;;;;;;;5051493;28;20036;-68
2022/07/16 03:45:29;;;;;;;8.25;2.67;;;;;;;;;;5052984;28;20032;-68
2022/07/16 03:47:56;;;;;;;6.72;2.67;;;;;;;;;;5051200;28;20610;-69
2022/07/16 03:50:22;;;;;;;8.45;2.80;;;;;;;;;;5051436;28;20035;-68
2022/07/16 03:52:48;;;;;;;6.20;2.40;;;;;;;;;;5055215;28;20139;-68
2022/07/16 03:55:14;;;;;;;7.72;2.90;;;;;;;;;;5049695;28;20024;-68
2022/07/16 03:57:40;;;;;;;10.85;2.60;;;;;;;;;;5032228;28;20423;-68
2022/07/16 04:00:07;;;;;;;8.10;2.63;;;;;;;;;;5054438;28;20039;-68
2022/07/16 04:02:33;;;;;;;8.38;2.78;;;;;;;;;;5053991;28;20040;-69
2022/07/16 04:05:00;;;;;;;7.95;3.05;;;;;;;;;;5054229;28;20148;-68
2022/07/16 04:07:26;;;;;;;8.00;2.50;;;;;;;;;;5059115;28;20047;-69
2022/07/16 04:09:52;;;;;;;7.32;2.60;;;;;;;;;;5052707;28;20168;-69
2022/07/16 04:12:18;;;;;;;11.80;3.10;;;;;;;;;;5034996;28;20119;-69
2022/07/16 04:14:44;;;;;;;8.35;3.13;;;;;;;;;;5038591;28;20020;-69
2022/07/16 04:17:10;;;;;;;11.57;2.90;;;;;;;;;;5055610;28;20333;-69
2022/07/16 04:19:36;;;;;;;11.80;3.17;;;;;;;;;;5054793;28;20101;-68
2022/07/16 04:22:03;;;;;;;11.00;3.05;;;;;;;;;;5052975;28;20350;-68
2022/07/16 04:24:29;;;;;;;8.85;2.97;;;;;;;;;;5038329;28;20805;-70
2022/07/16 04:26:55;;;;;;;9.10;2.88;;;;;;;;;;5051009;28;20078;-68
2022/07/16 04:29:21;;;;;;;9.23;2.67;;;;;;;;;;5059409;28;20020;-69
2022/07/16 04:31:47;;;;;;;8.20;2.55;;;;;;;;;;5053503;28;20025;-69
2022/07/16 04:34:13;;;;;;;9.23;2.72;;;;;;;;;;5055675;28;20077;-69
2022/07/16 04:36:39;;;;;;;8.00;2.83;;;;;;;;;;5052137;28;20036;-68
2022/07/16 04:39:05;;;;;;;8.20;2.97;;;;;;;;;;5053630;28;20033;-68
2022/07/16 04:41:35;;;;;;;8.38;3.03;;;;;;;;;;5039959;28;20036;-68
2022/07/16 04:44:01;;;;;;;7.97;2.60;;;;;;;;;;5033666;28;20027;-69
2022/07/16 04:46:27;;;;;;;10.35;2.97;;;;;;;;;;5038937;28;20787;-71
2022/07/16 04:48:53;;;;;;;8.07;2.72;;;;;;;;;;5055156;28;20083;-70
2022/07/16 04:51:19;;;;;;;9.60;3.00;;;;;;;;;;5035164;28;20981;-71
2022/07/16 04:53:45;;;;;;;7.30;2.50;;;;;;;;;;5054442;28;20028;-71
2022/07/16 04:56:11;;;;;;;7.22;2.47;;;;;;;;;;5054628;28;20032;-71
2022/07/16 04:58:37;;;;;;;6.68;2.58;;;;;;;;;;5052375;28;20425;-71
2022/07/16 05:01:03;;;;;;;10.15;2.60;;;;;;;;;;5052691;28;20419;-71
2022/07/16 05:03:30;;;;;;;8.45;2.70;;;;;;;;;;5057120;28;20032;-71
2022/07/16 05:05:56;;;;;;;6.70;2.70;;;;;;;;;;5035284;28;20047;-70
2022/07/16 05:08:22;;;;;;;8.80;2.90;;;;;;;;;;5041850;28;20418;-70
2022/07/16 05:10:49;;;;;;;9.52;3.10;;;;;;;;;;5053976;28;20094;-71
2022/07/16 05:13:15;;;;;;;8.45;3.08;;;;;;;;;;5035702;28;20979;-71
2022/07/16 05:15:41;;;;;;;9.88;3.42;;;;;;;;;;5031695;28;20832;-72
2022/07/16 05:18:08;;;;;;;9.65;2.80;;;;;;;;;;5035935;28;20351;-69
2022/07/16 05:20:34;;;;;;;8.88;3.20;;;;;;;;;;5056533;28;20181;-70
2022/07/16 05:23:00;;;;;;;51.47;6.53;;;;;;;;;;5052678;28;20028;-70
2022/07/16 05:25:26;;;;;;;41.38;6.15;;;;;;;;;;5039964;28;20028;-71
2022/07/16 05:27:52;;;;;;;20.33;4.75;;;;;;;;;;5052891;28;20665;-71
2022/07/16 05:30:19;;;;;;;24.00;4.30;;;;;;;;;;5059221;28;20406;-71
2022/07/16 05:32:45;;;;;;;11.38;3.20;;;;;;;;;;5053454;28;20027;-71
2022/07/16 05:35:13;;;;;;;10.88;2.83;;;;;;;;;;5039413;28;20056;-71
2022/07/16 05:37:39;;;;;;;8.02;2.60;;;;;;;;;;5056466;28;20038;-71
2022/07/16 05:40:05;;;;;;;9.23;2.95;;;;;;;;;;5049557;28;20028;-71
2022/07/16 05:42:31;;;;;;;11.30;2.60;;;;;;;;;;5053411;28;20059;-71
2022/07/16 05:44:58;;;;;;;8.02;2.72;;;;;;;;;;5052929;28;20048;-71
2022/07/16 05:47:24;;;;;;;8.48;2.58;;;;;;;;;;5056052;28;20340;-71
2022/07/16 05:49:50;;;;;;;6.30;2.70;;;;;;;;;;5054059;28;20056;-74
2022/07/16 05:52:16;;;;;;;6.25;2.42;;;;;;;;;;5057237;28;20023;-71
2022/07/16 05:54:42;;;;;;;10.00;2.15;;;;;;;;;;5032526;28;20298;-71
2022/07/16 05:57:08;;;;;;;7.10;2.38;;;;;;;;;;5055123;28;20472;-71
2022/07/16 05:59:34;;;;;;;8.48;2.22;;;;;;;;;;5040369;28;20765;-71
2022/07/16 06:02:00;;;;;;;5.68;2.40;;;;;;;;;;5035888;28;20017;-71
2022/07/16 06:04:26;;;;;;;6.65;1.92;;;;;;;;;;5054388;28;20044;-71
2022/07/16 06:06:53;;;;;;;7.57;2.10;;;;;;;;;;5051910;28;20082;-71
2022/07/16 06:09:19;;;;;;;6.72;1.98;;;;;;;;;;5038268;28;20071;-71
2022/07/16 06:11:46;;;;;;;8.23;2.00;;;;;;;;;;5052074;28;20277;-72
2022/07/16 06:14:12;;;;;;;6.47;1.75;;;;;;;;;;5041385;28;20067;-70
2022/07/16 06:16:40;;;;;;;6.75;1.85;;;;;;;;;;5039807;28;20084;-70
2022/07/16 06:19:06;;;;;;;6.82;1.90;;;;;;;;;;5061074;28;20458;-71
2022/07/16 06:21:32;;;;;;;5.38;1.80;;;;;;;;;;5038603;28;20032;-70
2022/07/16 06:23:58;;;;;;;8.30;2.03;;;;;;;;;;5033601;28;20480;-72
2022/07/16 06:26:24;;;;;;;5.63;1.77;;;;;;;;;;5056649;28;20028;-71
2022/07/16 06:28:51;;;;;;;8.73;1.95;;;;;;;;;;5052022;28;20076;-72
2022/07/16 06:31:17;;;;;;;8.77;1.88;;;;;;;;;;5054277;28;20051;-70
2022/07/16 06:33:43;;;;;;;6.28;1.83;;;;;;;;;;5052183;28;20045;-71
2022/07/16 06:36:09;;;;;;;8.40;2.05;;;;;;;;;;5034033;28;20465;-71
2022/07/16 06:38:35;;;;;;;9.05;1.88;;;;;;;;;;5055059;28;20036;-70
2022/07/16 06:41:01;;;;;;;6.40;1.80;;;;;;;;;;5034657;28;20085;-71
2022/07/16 06:43:27;;;;;;;5.05;1.42;;;;;;;;;;5053858;28;20043;-70
2022/07/16 06:45:53;;;;;;;7.57;2.38;;;;;;;;;;5031218;28;20025;-70
2022/07/16 06:48:20;;;;;;;10.00;4.22;;;;;;;;;;5054762;28;20491;-72
2022/07/16 06:50:46;;;;;;;9.60;3.20;;;;;;;;;;5049737;28;20058;-71
2022/07/16 06:53:12;;;;;;;8.70;2.97;;;;;;;;;;5054649;28;20127;-71
2022/07/16 06:55:38;;;;;;;7.07;2.50;;;;;;;;;;5052623;28;21016;-71
2022/07/16 06:58:04;;;;;;;7.25;2.00;;;;;;;;;;5027907;28;20037;-71
2022/07/16 07:00:30;;;;;;;7.65;2.00;;;;;;;;;;5050496;28;20629;-72
2022/07/16 07:02:56;;;;;;;8.73;1.90;;;;;;;;;;5051454;28;20040;-72
2022/07/16 07:05:22;;;;;;;7.57;1.80;;;;;;;;;;5031783;28;20036;-72
2022/07/16 07:07:48;;;;;;;5.35;1.70;;;;;;;;;;5054243;28;20047;-71
2022/07/16 07:10:15;;;;;;;7.68;1.92;;;;;;;;;;5054493;28;20028;-72
2022/07/16 07:12:41;;;;;;;5.68;1.92;;;;;;;;;;5033976;28;20073;-71
2022/07/16 07:15:07;;;;;;;5.03;1.83;;;;;;;;;;5037067;28;20414;-70
2022/07/16 07:17:33;;;;;;;5.80;1.63;;;;;;;;;;5052307;28;20033;-72
2022/07/16 07:19:59;;;;;;;6.45;1.80;;;;;;;;;;5049746;28;21882;-72
2022/07/16 07:22:25;;;;;;;5.93;1.88;;;;;;;;;;5051035;28;20090;-72
2022/07/16 07:24:51;;;;;;;7.78;1.80;;;;;;;;;;5049628;28;20059;-72
2022/07/16 07:27:22;;;;;;;6.63;2.15;;;;;;;;;;5051154;28;20033;-72
2022/07/16 07:29:48;;;;;;;7.60;2.03;;;;;;;;;;5049847;28;20481;-72
2022/07/16 07:32:14;;;;;;;17.92;3.35;;;;;;;;;;5053005;28;20368;-72
2022/07/16 07:34:41;;;;;;;13.60;3.33;;;;;;;;;;5048439;28;20082;-72
2022/07/16 07:37:07;;;;;;;29.92;4.57;;;;;;;;;;5034868;28;20043;-72
2022/07/16 07:39:34;;;;;;;8.82;2.50;;;;;;;;;;5052644;28;20063;-72
2022/07/16 07:42:00;;;;;;;7.93;1.80;;;;;;;;;;5030903;28;20087;-72
2022/07/16 07:44:26;;;;;;;10.52;2.45;;;;;;;;;;5050893;28;20928;-71
2022/07/16 07:46:52;;;;;;;11.75;2.35;;;;;;;;;;5031924;28;20390;-71
2022/07/16 07:49:18;;;;;;;8.68;1.90;;;;;;;;;;5049725;28;20052;-71
2022/07/16 07:51:45;;;;;;;6.22;1.63;;;;;;;;;;5049329;28;20137;-70
2022/07/16 07:54:11;;;;;;;9.48;1.88;;;;;;;;;;5055445;28;20107;-70
2022/07/16 07:56:38;;;;;;;6.97;1.80;;;;;;;;;;5048844;28;20032;-70
2022/07/16 07:59:04;;;;;;;7.90;2.00;;;;;;;;;;5047155;28;20681;-70
2022/07/16 08:01:30;;;;;;;7.95;1.85;;;;;;;;;;5049933;28;20046;-71
2022/07/16 08:03:56;;;;;;;5.00;1.65;;;;;;;;;;5045749;28;20755;-71
2022/07/16 08:06:22;;;;;;;5.30;1.70;;;;;;;;;;5031824;28;20036;-71
2022/07/16 08:08:48;;;;;;;10.23;2.10;;;;;;;;;;5049033;28;20040;-72
2022/07/16 08:11:14;;;;;;;7.50;1.90;;;;;;;;;;5049526;28;20036;-71
2022/07/16 08:13:40;;;;;;;5.43;1.70;;;;;;;;;;5044256;28;20033;-71
2022/07/16 08:16:07;;;;;;;8.95;1.80;;;;;;;;;;5049893;28;20028;-71
2022/07/16 08:18:33;;;;;;;9.50;1.73;;;;;;;;;;5048979;28;20194;-72
2022/07/16 08:21:03;;;;;;;6.32;1.58;;;;;;;;;;5047164;28;21636;-72
2022/07/16 08:26:14;;;;;;;6.13;1.55;;;;;;;;;;5052997;28;20077;-72
2022/07/16 08:28:42;;;;;;;6.25;1.70;;;;;;;;;;5029991;28;20391;-71
2022/07/16 08:31:09;;;;;;;6.30;1.70;;;;;;;;;;5057832;28;20032;-71
2022/07/16 08:33:35;;;;;;;8.77;1.80;;;;;;;;;;5052004;28;20036;-71
2022/07/16 08:36:01;;;;;;;6.25;1.75;;;;;;;;;;5048632;28;20032;-71
2022/07/16 08:38:27;;;;;;;8.13;2.10;;;;;;;;;;5049137;28;20067;-71
2022/07/16 08:40:55;;;;;;;9.73;2.20;;;;;;;;;;5029983;28;20490;-71
2022/07/16 08:43:21;;;;;;;14.05;2.13;;;;;;;;;;5052422;28;20031;-71
2022/07/16 08:45:48;;;;;;;8.40;1.83;;;;;;;;;;5046102;28;20037;-71
2022/07/16 08:48:14;;;;;;;9.43;2.13;;;;;;;;;;5021295;28;20050;-71
2022/07/16 08:50:42;;;;;;;9.20;2.10;;;;;;;;;;5004494;28;20033;-71
2022/07/16 08:53:08;;;;;;;8.98;2.35;;;;;;;;;;5010412;28;20140;-71
2022/07/16 08:55:37;;;;;;;9.45;2.10;;;;;;;;;;5007618;28;20154;-71
2022/07/16 08:58:03;;;;;;;11.23;2.17;;;;;;;;;;5008312;28;20033;-71
2022/07/16 09:00:29;;;;;;;7.85;2.22;;;;;;;;;;5012602;28;20544;-71
2022/07/16 09:02:55;;;;;;;8.45;2.10;;;;;;;;;;5009160;28;20172;-71
2022/07/16 09:05:21;;;;;;;8.18;2.10;;;;;;;;;;5014558;28;20523;-72
2022/07/16 09:07:47;;;;;;;8.85;2.10;;;;;;;;;;5011017;28;20033;-71
2022/07/16 09:10:13;;;;;;;10.80;2.40;;;;;;;;;;5009471;28;20029;-69
2022/07/16 09:12:49;;;;;;;6.88;2.10;;;;;;;;;;5011206;28;20642;-71
2022/07/16 09:15:21;;;;;;;7.68;2.13;;;;;;;;;;5010410;28;20037;-72
2022/07/16 09:18:05;;;;;;;8.13;2.00;;;;;;;;;;5007540;28;21081;-71
2022/07/16 09:20:32;;;;;;;6.40;2.00;;;;;;;;;;5015254;28;20375;-71
2022/07/16 09:22:58;;;;;;;4.68;1.70;;;;;;;;;;5009576;28;20384;-70
2022/07/16 09:25:24;;;;;;;7.70;2.03;;;;;;;;;;5011361;28;20348;-70
2022/07/16 09:28:01;;;;;;;6.13;2.08;;;;;;;;;;5008456;28;20040;-71
2022/07/16 09:30:33;;;;;;;6.63;1.90;;;;;;;;;;5014865;28;20029;-69
2022/07/16 09:33:10;;;;;;;7.57;2.00;;;;;;;;;;5014298;28;21893;-70
2022/07/16 09:35:37;;;;;;;5.72;1.73;;;;;;;;;;5018136;28;20028;-70
2022/07/16 09:38:07;;;;;;;5.63;1.65;;;;;;;;;;5010697;28;20135;-73
2022/07/16 09:40:33;;;;;;;6.85;1.90;;;;;;;;;;5011527;28;20036;-71
2022/07/16 09:43:00;;;;;;;8.57;2.35;;;;;;;;;;5014158;28;21762;-71
2022/07/16 09:45:26;;;;;;;6.75;2.20;;;;;;;;;;5014360;28;20053;-71
2022/07/16 09:50:58;;;;;;;9.95;2.30;;;;;;;;;;4999671;28;20048;-68
2022/07/16 09:53:26;;;;;;;6.75;2.15;;;;;;;;;;5011442;28;20072;-69
2022/07/16 09:55:59;;;;;;;6.30;2.30;;;;;;;;;;5009974;28;20052;-68
2022/07/16 09:58:29;;;;;;;11.93;2.20;;;;;;;;;;4999831;28;20429;-67
2022/07/16 10:00:56;;;;;;;8.00;2.10;;;;;;;;;;5007295;28;20043;-68
2022/07/16 10:03:22;;;;;;;8.10;2.28;;;;;;;;;;5013947;28;20044;-68
2022/07/16 10:05:48;;;;;;;8.82;2.50;;;;;;;;;;5010388;28;20132;-68
2022/07/16 10:08:15;;;;;;;6.75;2.20;;;;;;;;;;5014131;28;20121;-68
2022/07/16 10:10:41;;;;;;;7.18;2.28;;;;;;;;;;5005146;28;20487;-68
2022/07/16 10:13:08;;;;;;;11.10;2.40;;;;;;;;;;5013597;28;20692;-68
2022/07/16 10:15:34;;;;;;;6.22;2.20;;;;;;;;;;5008653;28;20033;-69
2022/07/16 10:18:01;;;;;;;7.53;2.53;;;;;;;;;;4993099;28;20771;-67
2022/07/16 10:20:27;;;;;;;7.88;2.40;;;;;;;;;;4992762;28;20038;-68
2022/07/16 10:22:53;;;;;;;10.52;3.25;;;;;;;;;;5052130;28;20237;-68
2022/07/16 10:25:22;;;;;;;9.77;3.35;;;;;;;;;;5055025;28;20028;-69
2022/07/16 10:27:48;;;;;;;6.82;2.92;;;;;;;;;;5055270;28;20028;-68
2022/07/16 10:30:25;;;;;;;7.70;3.10;;;;;;;;;;5040468;28;20487;-68
2022/07/16 10:33:05;;;;;;;9.05;2.83;;;;;;;;;;5035504;28;20024;-68
2022/07/16 10:35:37;;;;;;;8.25;3.08;;;;;;;;;;5033443;28;20470;-68
2022/07/16 10:38:14;;;;;;;8.05;3.30;;;;;;;;;;5051125;28;20135;-68
2022/07/16 10:40:41;;;;;;;8.85;3.00;;;;;;;;;;5028065;28;20089;-68
2022/07/16 10:43:12;;;;;;;7.10;2.47;;;;;;;;;;5038291;28;20348;-68
2022/07/16 10:45:54;;;;;;;9.85;2.95;;;;;;;;;;5053093;28;20051;-68
2022/07/16 10:48:21;;;;;;;7.72;3.00;;;;;;;;;;5034550;28;20448;-67
2022/07/16 10:51:06;;;;;;;7.28;3.13;;;;;;;;;;5029207;28;20712;-67
2022/07/16 10:53:52;;;;;;;7.00;2.58;;;;;;;;;;5035253;28;20086;-68
2022/07/16 10:56:36;;;;;;;8.10;2.78;;;;;;;;;;5050266;28;20548;-67
2022/07/16 10:59:03;;;;;;;6.20;3.00;;;;;;;;;;5048210;28;20032;-68
2022/07/16 11:01:30;;;;;;;9.52;3.00;;;;;;;;;;5048793;28;20025;-68
2022/07/16 11:03:56;;;;;;;6.47;3.13;;;;;;;;;;5049816;28;20039;-68
2022/07/16 11:06:23;;;;;;;7.68;3.13;;;;;;;;;;5053784;28;20398;-67
2022/07/16 11:08:59;;;;;;;7.63;3.47;;;;;;;;;;5032779;28;20056;-67
2022/07/16 11:11:45;;;;;;;7.05;3.40;;;;;;;;;;5034484;28;20051;-68
2022/07/16 11:14:11;;;;;;;7.60;3.70;;;;;;;;;;5050448;28;20392;-68
2022/07/16 11:16:48;;;;;;;8.90;3.40;;;;;;;;;;5047876;28;20086;-67
2022/07/16 11:19:15;;;;;;;7.65;3.55;;;;;;;;;;5031447;28;20122;-67
2022/07/16 11:22:01;;;;;;;7.95;3.95;;;;;;;;;;5045347;28;20232;-68
2022/07/16 11:24:29;;;;;;;8.50;3.70;;;;;;;;;;5051563;28;20047;-68
2022/07/16 11:26:56;;;;;;;8.27;3.78;;;;;;;;;;5048126;28;20499;-68
2022/07/16 11:29:24;;;;;;;7.45;3.60;;;;;;;;;;5030779;28;20028;-68
2022/07/16 11:31:50;;;;;;;7.72;3.63;;;;;;;;;;5028443;28;20567;-68
2022/07/16 11:34:18;;;;;;;9.18;3.50;;;;;;;;;;5052273;28;20437;-68
2022/07/16 11:36:50;;;;;;;7.47;3.47;;;;;;;;;;5048740;28;20032;-68
2022/07/16 11:39:20;;;;;;;7.57;3.72;;;;;;;;;;5052186;28;20032;-68
2022/07/16 11:41:47;;;;;;;8.52;4.05;;;;;;;;;;5047599;28;21291;-68
2022/07/16 11:44:18;;;;;;;9.77;3.95;;;;;;;;;;5031489;28;20591;-68
2022/07/16 11:46:55;;;;;;;8.30;4.18;;;;;;;;;;5026885;28;20037;-69
2022/07/16 11:49:26;;;;;;;8.68;4.03;;;;;;;;;;5014832;28;20052;-68
2022/07/16 11:51:53;;;;;;;10.57;4.10;;;;;;;;;;5008091;28;20387;-68
2022/07/16 11:54:20;;;;;;;9.25;4.18;;;;;;;;;;5013382;28;20029;-68
2022/07/16 11:56:46;;;;;;;9.07;3.72;;;;;;;;;;5012549;28;20415;-68
2022/07/16 11:59:26;;;;;;;7.88;3.60;;;;;;;;;;5009813;28;20470;-69
2022/07/16 12:02:00;;;;;;;7.10;3.97;;;;;;;;;;5013463;28;20057;-68
2022/07/16 12:04:34;;;;;;;8.05;3.72;;;;;;;;;;5014181;28;20552;-68
2022/07/16 12:07:01;;;;;;;8.43;3.73;;;;;;;;;;5009156;28;20424;-68
2022/07/16 12:09:34;;;;;;;8.30;3.88;;;;;;;;;;5011315;28;20856;-68
2022/07/16 12:12:04;;;;;;;8.17;4.00;;;;;;;;;;5012182;28;20440;-68
2022/07/16 12:14:42;;;;;;;8.48;3.95;;;;;;;;;;5012614;28;20441;-68
2022/07/16 12:17:17;;;;;;;7.03;3.75;;;;;;;;;;5014361;28;20049;-67
2022/07/16 12:19:49;;;;;;;9.00;3.55;;;;;;;;;;5011959;28;20087;-68
2022/07/16 12:22:15;;;;;;;8.73;3.83;;;;;;;;;;5008614;28;20552;-68
2022/07/16 12:24:41;;;;;;;9.02;3.72;;;;;;;;;;5006996;28;20037;-69
2022/07/16 12:27:07;;;;;;;8.93;4.03;;;;;;;;;;5005596;28;20329;-68
2022/07/16 12:29:39;;;;;;;9.13;3.50;;;;;;;;;;5016008;28;20076;-67
2022/07/16 12:32:06;;;;;;;8.43;3.28;;;;;;;;;;5014215;28;20912;-67
2022/07/16 12:34:52;;;;;;;5.78;2.78;;;;;;;;;;5009497;28;20499;-67
2022/07/16 12:37:19;;;;;;;7.05;2.70;;;;;;;;;;5011543;28;20048;-67
2022/07/16 12:39:45;;;;;;;7.15;2.80;;;;;;;;;;5010858;28;20037;-68
2022/07/16 12:42:12;;;;;;;8.43;3.20;;;;;;;;;;5009271;28;20124;-68
2022/07/16 12:44:38;;;;;;;6.60;3.15;;;;;;;;;;5009051;28;20474;-68
2022/07/16 12:47:04;;;;;;;6.15;2.85;;;;;;;;;;5003503;28;20532;-68
2022/07/16 12:49:31;;;;;;;7.72;3.20;;;;;;;;;;5039765;28;20045;-67
2022/07/16 12:52:01;;;;;;;13.65;2.90;;;;;;;;;;5045423;28;20461;-68
2022/07/16 12:58:47;;;;;;;7.05;2.72;;;;;;;;;;5047813;28;20032;-67
2022/07/16 12:59:58;;;;;;;6.88;2.58;;;;;;;;;;5043129;28;20050;-67
2022/07/16 13:02:24;;;;;;;7.20;2.88;;;;;;;;;;5047354;28;20082;-67
2022/07/16 13:04:50;;;;;;;10.13;2.80;;;;;;;;;;5028023;28;20606;-68
2022/07/16 13:07:16;;;;;;;7.00;2.83;;;;;;;;;;5051430;28;20051;-68
2022/07/16 13:09:42;;;;;;;5.57;2.33;;;;;;;;;;5032712;28;20024;-68
2022/07/16 13:12:10;;;;;;;6.47;2.70;;;;;;;;;;5058292;28;20024;-68
2022/07/16 13:14:36;;;;;;;7.50;2.80;;;;;;;;;;5036971;28;20028;-68
2022/07/16 13:17:02;;;;;;;6.30;2.80;;;;;;;;;;5050576;28;20089;-67
2022/07/16 13:19:29;;;;;;;8.25;2.78;;;;;;;;;;5037486;28;20273;-68
2022/07/16 13:21:55;;;;;;;5.07;2.40;;;;;;;;;;5049687;28;20446;-68
2022/07/16 13:24:21;;;;;;;7.47;2.75;;;;;;;;;;5050373;28;20168;-68
2022/07/16 13:26:47;;;;;;;5.50;2.45;;;;;;;;;;5049946;28;20028;-67
2022/07/16 13:29:13;;;;;;;7.07;2.40;;;;;;;;;;5053826;28;20132;-68
2022/07/16 13:31:40;;;;;;;5.70;2.13;;;;;;;;;;5055211;28;20024;-68
2022/07/16 13:34:06;;;;;;;4.80;1.98;;;;;;;;;;5051866;28;20106;-68
2022/07/16 13:36:32;;;;;;;6.15;2.30;;;;;;;;;;5053802;28;20103;-67
2022/07/16 13:38:58;;;;;;;5.65;2.00;;;;;;;;;;5027754;28;20063;-68
2022/07/16 13:41:24;;;;;;;6.22;2.22;;;;;;;;;;5054867;28;20112;-68
2022/07/16 13:43:50;;;;;;;7.22;2.42;;;;;;;;;;5032036;28;20123;-68
2022/07/16 13:46:16;;;;;;;6.32;2.08;;;;;;;;;;5034733;28;20028;-70
2022/07/16 13:48:43;;;;;;;6.25;2.10;;;;;;;;;;5031923;28;20048;-68
2022/07/16 13:51:09;;;;;;;8.52;2.38;;;;;;;;;;5034675;28;20041;-67
2022/07/16 13:53:35;;;;;;;6.40;2.13;;;;;;;;;;5049170;28;20043;-68
2022/07/16 13:56:01;;;;;;;4.75;2.10;;;;;;;;;;5050419;28;20036;-67
2022/07/16 13:58:27;;;;;;;7.15;2.10;;;;;;;;;;5055630;28;20504;-68
2022/07/16 14:00:58;;;;;;;5.47;1.98;;;;;;;;;;5056787;28;20047;-66
2022/07/16 14:03:25;;;;;;;5.28;2.00;;;;;;;;;;5050956;28;20012;-69
2022/07/16 14:05:53;;;;;;;5.85;2.15;;;;;;;;;;5047277;28;20036;-69
2022/07/16 14:08:19;;;;;;;5.30;2.20;;;;;;;;;;5036418;28;20032;-69
2022/07/16 14:10:46;;;;;;;4.50;2.00;;;;;;;;;;5054469;28;20031;-69
2022/07/16 14:13:12;;;;;;;8.57;2.30;;;;;;;;;;5062955;28;20020;-69
2022/07/16 14:15:39;;;;;;;7.97;2.30;;;;;;;;;;5057796;28;20420;-69
2022/07/16 14:18:07;;;;;;;4.68;2.20;;;;;;;;;;5056551;28;20035;-68
2022/07/16 14:20:34;;;;;;;5.22;2.00;;;;;;;;;;5056734;28;20479;-68
2022/07/16 14:23:01;;;;;;;5.78;1.98;;;;;;;;;;5051200;28;21086;-69
2022/07/16 14:25:27;;;;;;;5.10;1.80;;;;;;;;;;5058584;28;20580;-69
2022/07/16 14:27:53;;;;;;;6.30;2.13;;;;;;;;;;5054180;28;20024;-69
2022/07/16 14:30:20;;;;;;;6.68;2.00;;;;;;;;;;5054440;28;20260;-69
2022/07/16 14:32:46;;;;;;;5.82;2.30;;;;;;;;;;5051473;28;20031;-69
2022/07/16 14:35:13;;;;;;;6.13;2.03;;;;;;;;;;5053079;28;20136;-69
2022/07/16 14:37:40;;;;;;;6.80;1.90;;;;;;;;;;5055803;28;20819;-67
2022/07/16 14:40:08;;;;;;;6.35;2.05;;;;;;;;;;5052787;28;20592;-67
2022/07/16 14:42:36;;;;;;;4.55;1.90;;;;;;;;;;5035323;28;20028;-68
2022/07/16 14:45:03;;;;;;;5.10;2.05;;;;;;;;;;5053366;28;20120;-67
2022/07/16 14:47:29;;;;;;;4.22;1.90;;;;;;;;;;5049152;28;20141;-69
2022/07/16 14:49:55;;;;;;;6.07;1.90;;;;;;;;;;5055817;28;20483;-67
2022/07/16 14:52:21;;;;;;;6.13;2.05;;;;;;;;;;5052942;28;20563;-70
2022/07/16 14:54:47;;;;;;;4.88;2.05;;;;;;;;;;5031427;28;20036;-67